sensor_id;sensor_type;location;lat;lon;timestamp;P1;durP1;ratioP1;P2;durP2;ratioP2
1591;SDS011;789;51.612;7.510;2023-10-08T00:02:04;11.67;;;6.30;;
1591;SDS011;789;51.612;7.510;2023-10-08T00:04:33;11.43;;;6.23;;
1591;SDS011;789;51.612;7.510;2023-10-08T00:07:02;11.63;;;6.50;;
1591;SDS011;789;51.612;7.510;2023-10-08T00:09:32;8.90;;;6.17;;
1591;SDS011;789;51.612;7.510;2023-10-08T00:12:01;11.93;;;6.73;;
1591;SDS011;789;51.612;7.510;2023-10-08T00:14:29;11.73;;;6.60;;
1591;SDS011;789;51.612;7.510;2023-10-08T00:16:57;9.37;;;6.50;;
1591;SDS011;789;51.612;7.510;2023-10-08T00:19:25;12.90;;;6.60;;
1591;SDS011;789;51.612;7.510;2023-10-08T00:22:00;11.73;;;5.70;;
1591;SDS011;789;51.612;7.510;2023-10-08T00:24:31;9.20;;;6.27;;
1591;SDS011;789;51.612;7.510;2023-10-08T00:26:58;10.90;;;6.67;;
1591;SDS011;789;51.612;7.510;2023-10-08T00:29:25;15.80;;;6.60;;
1591;SDS011;789;51.612;7.510;2023-10-08T00:31:56;8.70;;;6.40;;
1591;SDS011;789;51.612;7.510;2023-10-08T00:34:23;12.27;;;6.70;;
1591;SDS011;789;51.612;7.510;2023-10-08T00:36:52;14.90;;;6.67;;
1591;SDS011;789;51.612;7.510;2023-10-08T00:39:20;14.23;;;6.80;;
1591;SDS011;789;51.612;7.510;2023-10-08T00:41:49;9.10;;;5.87;;
1591;SDS011;789;51.612;7.510;2023-10-08T00:44:19;17.30;;;6.60;;
1591;SDS011;789;51.612;7.510;2023-10-08T00:46:54;12.27;;;6.40;;
1591;SDS011;789;51.612;7.510;2023-10-08T00:49:27;9.73;;;6.17;;
1591;SDS011;789;51.612;7.510;2023-10-08T00:52:13;10.60;;;6.97;;
1591;SDS011;789;51.612;7.510;2023-10-08T00:54:56;11.00;;;6.47;;
1591;SDS011;789;51.612;7.510;2023-10-08T00:57:46;11.50;;;6.80;;
1591;SDS011;789;51.612;7.510;2023-10-08T01:00:18;13.53;;;6.83;;
1591;SDS011;789;51.612;7.510;2023-10-08T01:02:47;10.57;;;6.50;;
1591;SDS011;789;51.612;7.510;2023-10-08T01:05:20;9.23;;;6.67;;
1591;SDS011;789;51.612;7.510;2023-10-08T01:08:01;13.30;;;6.70;;
1591;SDS011;789;51.612;7.510;2023-10-08T01:10:32;10.07;;;6.23;;
1591;SDS011;789;51.612;7.510;2023-10-08T01:13:01;11.20;;;6.53;;
1591;SDS011;789;51.612;7.510;2023-10-08T01:15:32;10.30;;;6.53;;
1591;SDS011;789;51.612;7.510;2023-10-08T01:18:01;13.87;;;7.03;;
1591;SDS011;789;51.612;7.510;2023-10-08T01:20:31;8.87;;;5.47;;
1591;SDS011;789;51.612;7.510;2023-10-08T01:23:04;14.40;;;7.17;;
1591;SDS011;789;51.612;7.510;2023-10-08T01:25:35;10.90;;;6.37;;
1591;SDS011;789;51.612;7.510;2023-10-08T01:28:03;9.40;;;6.90;;
1591;SDS011;789;51.612;7.510;2023-10-08T01:30:35;11.67;;;6.40;;
1591;SDS011;789;51.612;7.510;2023-10-08T01:33:07;11.90;;;7.03;;
1591;SDS011;789;51.612;7.510;2023-10-08T01:35:38;14.10;;;6.60;;
1591;SDS011;789;51.612;7.510;2023-10-08T01:38:07;9.10;;;6.80;;
1591;SDS011;789;51.612;7.510;2023-10-08T01:40:38;11.80;;;6.47;;
1591;SDS011;789;51.612;7.510;2023-10-08T01:43:05;11.60;;;7.00;;
1591;SDS011;789;51.612;7.510;2023-10-08T01:45:35;10.70;;;6.53;;
1591;SDS011;789;51.612;7.510;2023-10-08T01:48:05;10.10;;;6.83;;
1591;SDS011;789;51.612;7.510;2023-10-08T01:50:36;8.93;;;6.27;;
1591;SDS011;789;51.612;7.510;2023-10-08T01:53:04;9.37;;;6.20;;
1591;SDS011;789;51.612;7.510;2023-10-08T01:55:36;12.30;;;7.17;;
1591;SDS011;789;51.612;7.510;2023-10-08T01:58:14;11.40;;;6.70;;
1591;SDS011;789;51.612;7.510;2023-10-08T02:00:42;15.27;;;6.90;;
1591;SDS011;789;51.612;7.510;2023-10-08T02:03:10;12.60;;;6.73;;
1591;SDS011;789;51.612;7.510;2023-10-08T02:05:40;12.10;;;6.40;;
1591;SDS011;789;51.612;7.510;2023-10-08T02:08:07;12.83;;;6.93;;
1591;SDS011;789;51.612;7.510;2023-10-08T02:10:36;12.33;;;7.07;;
1591;SDS011;789;51.612;7.510;2023-10-08T02:13:05;14.20;;;6.90;;
1591;SDS011;789;51.612;7.510;2023-10-08T02:15:33;14.63;;;7.30;;
1591;SDS011;789;51.612;7.510;2023-10-08T02:18:00;13.77;;;7.10;;
1591;SDS011;789;51.612;7.510;2023-10-08T02:20:28;9.80;;;7.10;;
1591;SDS011;789;51.612;7.510;2023-10-08T02:22:55;12.30;;;7.20;;
1591;SDS011;789;51.612;7.510;2023-10-08T02:25:22;9.93;;;6.43;;
1591;SDS011;789;51.612;7.510;2023-10-08T02:27:51;11.27;;;6.93;;
1591;SDS011;789;51.612;7.510;2023-10-08T02:30:18;13.93;;;8.00;;
1591;SDS011;789;51.612;7.510;2023-10-08T02:32:45;12.80;;;7.67;;
1591;SDS011;789;51.612;7.510;2023-10-08T02:35:12;13.80;;;6.70;;
1591;SDS011;789;51.612;7.510;2023-10-08T02:37:39;11.00;;;7.70;;
1591;SDS011;789;51.612;7.510;2023-10-08T02:40:06;11.30;;;7.27;;
1591;SDS011;789;51.612;7.510;2023-10-08T02:42:41;9.60;;;6.67;;
1591;SDS011;789;51.612;7.510;2023-10-08T02:45:12;9.27;;;6.40;;
1591;SDS011;789;51.612;7.510;2023-10-08T02:47:40;12.53;;;6.73;;
1591;SDS011;789;51.612;7.510;2023-10-08T02:50:10;12.03;;;6.80;;
1591;SDS011;789;51.612;7.510;2023-10-08T02:52:41;10.87;;;7.17;;
1591;SDS011;789;51.612;7.510;2023-10-08T02:55:09;12.03;;;6.63;;
1591;SDS011;789;51.612;7.510;2023-10-08T02:57:53;11.43;;;7.13;;
1591;SDS011;789;51.612;7.510;2023-10-08T03:00:22;14.00;;;6.77;;
1591;SDS011;789;51.612;7.510;2023-10-08T03:02:54;15.80;;;7.30;;
1591;SDS011;789;51.612;7.510;2023-10-08T03:05:23;12.70;;;7.40;;
1591;SDS011;789;51.612;7.510;2023-10-08T03:07:54;10.40;;;6.80;;
1591;SDS011;789;51.612;7.510;2023-10-08T03:10:23;12.00;;;7.20;;
1591;SDS011;789;51.612;7.510;2023-10-08T03:12:57;13.30;;;5.90;;
1591;SDS011;789;51.612;7.510;2023-10-08T03:15:30;10.80;;;6.80;;
1591;SDS011;789;51.612;7.510;2023-10-08T03:18:04;10.83;;;6.80;;
1591;SDS011;789;51.612;7.510;2023-10-08T03:20:35;11.23;;;6.30;;
1591;SDS011;789;51.612;7.510;2023-10-08T03:23:08;10.40;;;6.80;;
1591;SDS011;789;51.612;7.510;2023-10-08T03:25:50;10.80;;;6.87;;
1591;SDS011;789;51.612;7.510;2023-10-08T03:28:22;12.53;;;7.07;;
1591;SDS011;789;51.612;7.510;2023-10-08T03:30:51;10.80;;;7.20;;
1591;SDS011;789;51.612;7.510;2023-10-08T03:33:27;12.40;;;6.70;;
1591;SDS011;789;51.612;7.510;2023-10-08T03:35:59;10.67;;;6.77;;
1591;SDS011;789;51.612;7.510;2023-10-08T03:38:34;11.67;;;7.97;;
1591;SDS011;789;51.612;7.510;2023-10-08T03:41:10;17.33;;;8.67;;
1591;SDS011;789;51.612;7.510;2023-10-08T03:43:42;13.73;;;7.50;;
1591;SDS011;789;51.612;7.510;2023-10-08T03:46:19;15.33;;;7.50;;
1591;SDS011;789;51.612;7.510;2023-10-08T03:48:48;11.53;;;7.50;;
1591;SDS011;789;51.612;7.510;2023-10-08T03:51:17;13.60;;;7.23;;
1591;SDS011;789;51.612;7.510;2023-10-08T03:53:45;11.60;;;6.37;;
1591;SDS011;789;51.612;7.510;2023-10-08T03:56:24;17.73;;;6.90;;
1591;SDS011;789;51.612;7.510;2023-10-08T03:58:54;12.13;;;7.20;;
1591;SDS011;789;51.612;7.510;2023-10-08T04:01:26;14.47;;;6.93;;
1591;SDS011;789;51.612;7.510;2023-10-08T04:03:57;11.17;;;7.10;;
1591;SDS011;789;51.612;7.510;2023-10-08T04:06:26;14.03;;;7.57;;
1591;SDS011;789;51.612;7.510;2023-10-08T04:09:03;11.33;;;7.67;;
1591;SDS011;789;51.612;7.510;2023-10-08T04:11:44;13.97;;;7.57;;
1591;SDS011;789;51.612;7.510;2023-10-08T04:14:21;8.27;;;6.33;;
1591;SDS011;789;51.612;7.510;2023-10-08T04:16:50;10.50;;;6.83;;
1591;SDS011;789;51.612;7.510;2023-10-08T04:19:18;13.50;;;7.03;;
1591;SDS011;789;51.612;7.510;2023-10-08T04:21:46;11.70;;;7.57;;
1591;SDS011;789;51.612;7.510;2023-10-08T04:24:19;11.93;;;6.47;;
1591;SDS011;789;51.612;7.510;2023-10-08T04:26:53;13.60;;;7.57;;
1591;SDS011;789;51.612;7.510;2023-10-08T04:29:23;12.87;;;7.37;;
1591;SDS011;789;51.612;7.510;2023-10-08T04:31:52;10.53;;;7.40;;
1591;SDS011;789;51.612;7.510;2023-10-08T04:34:32;11.60;;;7.37;;
1591;SDS011;789;51.612;7.510;2023-10-08T04:36:59;14.43;;;7.23;;
1591;SDS011;789;51.612;7.510;2023-10-08T04:39:28;9.70;;;7.20;;
1591;SDS011;789;51.612;7.510;2023-10-08T04:41:58;17.03;;;7.33;;
1591;SDS011;789;51.612;7.510;2023-10-08T04:44:31;11.07;;;7.10;;
1591;SDS011;789;51.612;7.510;2023-10-08T04:47:00;11.73;;;7.27;;
1591;SDS011;789;51.612;7.510;2023-10-08T04:49:31;19.77;;;8.03;;
1591;SDS011;789;51.612;7.510;2023-10-08T04:51:59;11.90;;;7.70;;
1591;SDS011;789;51.612;7.510;2023-10-08T04:54:30;14.30;;;7.30;;
1591;SDS011;789;51.612;7.510;2023-10-08T04:56:57;16.73;;;7.67;;
1591;SDS011;789;51.612;7.510;2023-10-08T04:59:25;13.70;;;7.70;;
1591;SDS011;789;51.612;7.510;2023-10-08T05:01:58;13.43;;;7.40;;
1591;SDS011;789;51.612;7.510;2023-10-08T05:04:47;11.87;;;6.83;;
1591;SDS011;789;51.612;7.510;2023-10-08T05:07:46;18.43;;;8.17;;
1591;SDS011;789;51.612;7.510;2023-10-08T05:10:26;12.07;;;8.40;;
1591;SDS011;789;51.612;7.510;2023-10-08T05:13:12;12.90;;;8.00;;
1591;SDS011;789;51.612;7.510;2023-10-08T05:15:42;15.03;;;9.23;;
1591;SDS011;789;51.612;7.510;2023-10-08T05:18:29;17.30;;;8.17;;
1591;SDS011;789;51.612;7.510;2023-10-08T05:21:19;13.73;;;9.10;;
1591;SDS011;789;51.612;7.510;2023-10-08T05:23:53;14.70;;;8.30;;
1591;SDS011;789;51.612;7.510;2023-10-08T05:26:33;11.93;;;8.43;;
1591;SDS011;789;51.612;7.510;2023-10-08T05:29:14;14.47;;;8.70;;
1591;SDS011;789;51.612;7.510;2023-10-08T05:31:58;14.40;;;8.87;;
1591;SDS011;789;51.612;7.510;2023-10-08T05:34:40;9.77;;;7.57;;
1591;SDS011;789;51.612;7.510;2023-10-08T05:37:16;12.87;;;8.37;;
1591;SDS011;789;51.612;7.510;2023-10-08T05:39:58;14.50;;;8.47;;
1591;SDS011;789;51.612;7.510;2023-10-08T05:42:38;8.93;;;6.07;;
1591;SDS011;789;51.612;7.510;2023-10-08T05:45:13;11.10;;;6.63;;
1591;SDS011;789;51.612;7.510;2023-10-08T05:47:54;10.40;;;6.50;;
1591;SDS011;789;51.612;7.510;2023-10-08T05:50:39;8.13;;;6.00;;
1591;SDS011;789;51.612;7.510;2023-10-08T05:53:08;6.47;;;4.40;;
1591;SDS011;789;51.612;7.510;2023-10-08T05:55:44;7.50;;;4.30;;
1591;SDS011;789;51.612;7.510;2023-10-08T05:58:26;10.80;;;4.10;;
1591;SDS011;789;51.612;7.510;2023-10-08T06:01:00;6.30;;;3.90;;
1591;SDS011;789;51.612;7.510;2023-10-08T06:03:34;4.23;;;3.83;;
1591;SDS011;789;51.612;7.510;2023-10-08T06:06:14;3.73;;;3.43;;
1591;SDS011;789;51.612;7.510;2023-10-08T06:09:02;5.30;;;3.33;;
1591;SDS011;789;51.612;7.510;2023-10-08T06:11:47;5.97;;;3.10;;
1591;SDS011;789;51.612;7.510;2023-10-08T06:14:34;4.13;;;3.03;;
1591;SDS011;789;51.612;7.510;2023-10-08T06:17:34;4.20;;;3.53;;
1591;SDS011;789;51.612;7.510;2023-10-08T06:20:21;6.30;;;4.30;;
1591;SDS011;789;51.612;7.510;2023-10-08T06:22:53;4.23;;;3.73;;
1591;SDS011;789;51.612;7.510;2023-10-08T06:25:26;8.00;;;3.23;;
1591;SDS011;789;51.612;7.510;2023-10-08T06:27:53;2.30;;;2.10;;
1591;SDS011;789;51.612;7.510;2023-10-08T06:30:21;10.10;;;2.37;;
1591;SDS011;789;51.612;7.510;2023-10-08T06:32:50;4.23;;;1.97;;
1591;SDS011;789;51.612;7.510;2023-10-08T06:35:18;4.57;;;1.87;;
1591;SDS011;789;51.612;7.510;2023-10-08T06:37:51;7.20;;;2.17;;
1591;SDS011;789;51.612;7.510;2023-10-08T06:40:26;2.87;;;1.53;;
1591;SDS011;789;51.612;7.510;2023-10-08T06:43:08;5.37;;;1.30;;
1591;SDS011;789;51.612;7.510;2023-10-08T06:45:40;2.33;;;1.70;;
1591;SDS011;789;51.612;7.510;2023-10-08T06:48:08;3.90;;;1.30;;
1591;SDS011;789;51.612;7.510;2023-10-08T06:50:42;1.80;;;1.60;;
1591;SDS011;789;51.612;7.510;2023-10-08T06:53:10;6.60;;;1.80;;
1591;SDS011;789;51.612;7.510;2023-10-08T06:55:40;8.27;;;1.90;;
1591;SDS011;789;51.612;7.510;2023-10-08T06:58:08;3.73;;;1.90;;
1591;SDS011;789;51.612;7.510;2023-10-08T07:00:37;1.77;;;1.63;;
1591;SDS011;789;51.612;7.510;2023-10-08T07:03:07;2.00;;;1.50;;
1591;SDS011;789;51.612;7.510;2023-10-08T07:05:36;4.40;;;1.60;;
1591;SDS011;789;51.612;7.510;2023-10-08T07:08:08;1.60;;;1.50;;
1591;SDS011;789;51.612;7.510;2023-10-08T07:10:39;5.47;;;1.70;;
1591;SDS011;789;51.612;7.510;2023-10-08T07:13:07;3.00;;;1.70;;
1591;SDS011;789;51.612;7.510;2023-10-08T07:15:34;1.50;;;1.40;;
1591;SDS011;789;51.612;7.510;2023-10-08T07:18:04;1.40;;;1.30;;
1591;SDS011;789;51.612;7.510;2023-10-08T07:20:38;1.30;;;1.20;;
1591;SDS011;789;51.612;7.510;2023-10-08T07:23:07;1.30;;;1.20;;
1591;SDS011;789;51.612;7.510;2023-10-08T07:25:45;1.67;;;1.10;;
1591;SDS011;789;51.612;7.510;2023-10-08T07:28:18;1.47;;;1.20;;
1591;SDS011;789;51.612;7.510;2023-10-08T07:30:46;4.60;;;1.30;;
1591;SDS011;789;51.612;7.510;2023-10-08T07:33:14;1.83;;;1.23;;
1591;SDS011;789;51.612;7.510;2023-10-08T07:35:50;2.97;;;1.27;;
1591;SDS011;789;51.612;7.510;2023-10-08T07:38:28;2.17;;;1.13;;
1591;SDS011;789;51.612;7.510;2023-10-08T07:40:56;2.17;;;1.10;;
1591;SDS011;789;51.612;7.510;2023-10-08T07:43:26;1.40;;;0.60;;
1591;SDS011;789;51.612;7.510;2023-10-08T07:45:57;1.27;;;0.80;;
1591;SDS011;789;51.612;7.510;2023-10-08T07:48:25;2.30;;;0.60;;
1591;SDS011;789;51.612;7.510;2023-10-08T07:50:54;0.83;;;0.60;;
1591;SDS011;789;51.612;7.510;2023-10-08T07:53:22;0.90;;;0.50;;
1591;SDS011;789;51.612;7.510;2023-10-08T07:55:49;0.93;;;0.70;;
1591;SDS011;789;51.612;7.510;2023-10-08T07:58:18;1.43;;;0.93;;
1591;SDS011;789;51.612;7.510;2023-10-08T08:00:45;1.20;;;1.00;;
1591;SDS011;789;51.612;7.510;2023-10-08T08:03:25;1.83;;;0.90;;
1591;SDS011;789;51.612;7.510;2023-10-08T08:05:52;1.37;;;1.20;;
1591;SDS011;789;51.612;7.510;2023-10-08T08:08:20;1.57;;;1.20;;
1591;SDS011;789;51.612;7.510;2023-10-08T08:10:48;2.80;;;1.23;;
1591;SDS011;789;51.612;7.510;2023-10-08T08:13:24;2.87;;;1.60;;
1591;SDS011;789;51.612;7.510;2023-10-08T08:15:53;2.70;;;1.83;;
1591;SDS011;789;51.612;7.510;2023-10-08T08:18:23;7.57;;;2.13;;
1591;SDS011;789;51.612;7.510;2023-10-08T08:20:58;3.67;;;2.50;;
1591;SDS011;789;51.612;7.510;2023-10-08T08:23:27;2.00;;;1.20;;
1591;SDS011;789;51.612;7.510;2023-10-08T08:25:55;4.50;;;1.93;;
1591;SDS011;789;51.612;7.510;2023-10-08T08:28:33;2.10;;;1.20;;
1591;SDS011;789;51.612;7.510;2023-10-08T08:31:01;4.10;;;1.47;;
1591;SDS011;789;51.612;7.510;2023-10-08T08:33:29;3.43;;;1.67;;
1591;SDS011;789;51.612;7.510;2023-10-08T08:36:17;3.63;;;1.87;;
1591;SDS011;789;51.612;7.510;2023-10-08T08:38:44;5.00;;;2.47;;
1591;SDS011;789;51.612;7.510;2023-10-08T08:41:11;3.43;;;2.60;;
1591;SDS011;789;51.612;7.510;2023-10-08T08:43:41;3.33;;;2.07;;
1591;SDS011;789;51.612;7.510;2023-10-08T08:46:09;6.33;;;2.37;;
1591;SDS011;789;51.612;7.510;2023-10-08T08:48:38;4.27;;;2.50;;
1591;SDS011;789;51.612;7.510;2023-10-08T08:56:25;5.17;;;2.60;;
1591;SDS011;789;51.612;7.510;2023-10-08T08:58:55;3.60;;;2.20;;
1591;SDS011;789;51.612;7.510;2023-10-08T09:01:23;4.00;;;1.80;;
1591;SDS011;789;51.612;7.510;2023-10-08T09:03:50;3.83;;;2.00;;
1591;SDS011;789;51.612;7.510;2023-10-08T09:08:52;2.80;;;1.93;;
1591;SDS011;789;51.612;7.510;2023-10-08T09:11:21;4.50;;;1.80;;
1591;SDS011;789;51.612;7.510;2023-10-08T09:13:48;3.73;;;1.50;;
1591;SDS011;789;51.612;7.510;2023-10-08T09:16:17;3.70;;;1.70;;
1591;SDS011;789;51.612;7.510;2023-10-08T09:18:44;2.80;;;1.47;;
1591;SDS011;789;51.612;7.510;2023-10-08T09:21:14;4.33;;;1.30;;
1591;SDS011;789;51.612;7.510;2023-10-08T09:23:44;4.53;;;1.60;;
1591;SDS011;789;51.612;7.510;2023-10-08T09:26:16;4.03;;;2.10;;
1591;SDS011;789;51.612;7.510;2023-10-08T09:28:45;3.00;;;1.47;;
1591;SDS011;789;51.612;7.510;2023-10-08T09:31:13;3.90;;;1.50;;
1591;SDS011;789;51.612;7.510;2023-10-08T09:33:43;4.50;;;1.40;;
1591;SDS011;789;51.612;7.510;2023-10-08T09:36:20;3.30;;;1.30;;
1591;SDS011;789;51.612;7.510;2023-10-08T09:38:56;3.00;;;1.70;;
1591;SDS011;789;51.612;7.510;2023-10-08T09:41:25;4.47;;;1.30;;
1591;SDS011;789;51.612;7.510;2023-10-08T09:43:55;6.23;;;1.43;;
1591;SDS011;789;51.612;7.510;2023-10-08T09:46:25;7.50;;;2.00;;
1591;SDS011;789;51.612;7.510;2023-10-08T09:49:00;5.10;;;1.57;;
1591;SDS011;789;51.612;7.510;2023-10-08T09:51:31;2.80;;;1.30;;
1591;SDS011;789;51.612;7.510;2023-10-08T09:54:05;2.97;;;1.40;;
1591;SDS011;789;51.612;7.510;2023-10-08T09:56:39;5.60;;;1.40;;
1591;SDS011;789;51.612;7.510;2023-10-08T09:59:08;5.10;;;1.63;;
1591;SDS011;789;51.612;7.510;2023-10-08T10:01:36;5.03;;;1.40;;
1591;SDS011;789;51.612;7.510;2023-10-08T10:04:06;4.60;;;1.57;;
1591;SDS011;789;51.612;7.510;2023-10-08T10:06:35;3.60;;;1.40;;
1591;SDS011;789;51.612;7.510;2023-10-08T10:09:03;7.67;;;1.50;;
1591;SDS011;789;51.612;7.510;2023-10-08T10:11:35;4.17;;;1.53;;
1591;SDS011;789;51.612;7.510;2023-10-08T10:14:02;9.20;;;1.80;;
1591;SDS011;789;51.612;7.510;2023-10-08T10:16:31;4.73;;;1.33;;
1591;SDS011;789;51.612;7.510;2023-10-08T10:19:02;5.47;;;1.70;;
1591;SDS011;789;51.612;7.510;2023-10-08T10:21:31;3.00;;;1.47;;
1591;SDS011;789;51.612;7.510;2023-10-08T10:23:59;9.20;;;2.03;;
1591;SDS011;789;51.612;7.510;2023-10-08T10:26:26;2.80;;;1.30;;
1591;SDS011;789;51.612;7.510;2023-10-08T10:31:44;3.37;;;1.17;;
1591;SDS011;789;51.612;7.510;2023-10-08T10:34:12;5.83;;;1.40;;
1591;SDS011;789;51.612;7.510;2023-10-08T10:36:43;6.00;;;1.27;;
1591;SDS011;789;51.612;7.510;2023-10-08T10:39:13;6.03;;;1.83;;
1591;SDS011;789;51.612;7.510;2023-10-08T10:41:43;4.20;;;1.27;;
1591;SDS011;789;51.612;7.510;2023-10-08T10:44:11;2.80;;;1.23;;
1591;SDS011;789;51.612;7.510;2023-10-08T10:46:39;4.70;;;1.80;;
1591;SDS011;789;51.612;7.510;2023-10-08T10:49:08;5.93;;;1.43;;
1591;SDS011;789;51.612;7.510;2023-10-08T10:51:45;2.80;;;1.37;;
1591;SDS011;789;51.612;7.510;2023-10-08T10:54:22;6.23;;;1.47;;
1591;SDS011;789;51.612;7.510;2023-10-08T10:56:48;6.30;;;1.87;;
1591;SDS011;789;51.612;7.510;2023-10-08T10:59:28;3.80;;;1.67;;
1591;SDS011;789;51.612;7.510;2023-10-08T11:02:02;3.70;;;1.70;;
1591;SDS011;789;51.612;7.510;2023-10-08T11:04:33;4.97;;;1.50;;
1591;SDS011;789;51.612;7.510;2023-10-08T11:07:14;5.63;;;1.73;;
1591;SDS011;789;51.612;7.510;2023-10-08T11:09:43;4.00;;;1.30;;
1591;SDS011;789;51.612;7.510;2023-10-08T11:12:10;5.10;;;1.60;;
1591;SDS011;789;51.612;7.510;2023-10-08T11:14:43;3.40;;;1.97;;
1591;SDS011;789;51.612;7.510;2023-10-08T11:17:13;2.57;;;1.50;;
1591;SDS011;789;51.612;7.510;2023-10-08T11:19:42;5.30;;;1.60;;
1591;SDS011;789;51.612;7.510;2023-10-08T11:22:11;4.77;;;1.60;;
1591;SDS011;789;51.612;7.510;2023-10-08T11:24:43;7.87;;;2.17;;
1591;SDS011;789;51.612;7.510;2023-10-08T11:27:12;4.30;;;1.53;;
1591;SDS011;789;51.612;7.510;2023-10-08T11:29:43;2.90;;;1.20;;
1591;SDS011;789;51.612;7.510;2023-10-08T11:32:11;4.37;;;1.20;;
1591;SDS011;789;51.612;7.510;2023-10-08T11:34:40;4.40;;;1.60;;
1591;SDS011;789;51.612;7.510;2023-10-08T11:37:08;4.37;;;1.63;;
1591;SDS011;789;51.612;7.510;2023-10-08T11:39:48;5.33;;;1.80;;
1591;SDS011;789;51.612;7.510;2023-10-08T11:42:17;2.53;;;1.27;;
1591;SDS011;789;51.612;7.510;2023-10-08T11:45:05;12.13;;;1.20;;
1591;SDS011;789;51.612;7.510;2023-10-08T11:47:44;3.83;;;1.30;;
1591;SDS011;789;51.612;7.510;2023-10-08T11:50:14;2.90;;;1.43;;
1591;SDS011;789;51.612;7.510;2023-10-08T11:52:44;4.83;;;1.80;;
1591;SDS011;789;51.612;7.510;2023-10-08T11:55:12;3.20;;;1.70;;
1591;SDS011;789;51.612;7.510;2023-10-08T11:57:44;3.87;;;1.60;;
1591;SDS011;789;51.612;7.510;2023-10-08T12:00:14;4.67;;;1.20;;
1591;SDS011;789;51.612;7.510;2023-10-08T12:02:45;3.40;;;1.43;;
1591;SDS011;789;51.612;7.510;2023-10-08T12:05:12;4.97;;;1.63;;
1591;SDS011;789;51.612;7.510;2023-10-08T12:07:45;3.43;;;1.10;;
1591;SDS011;789;51.612;7.510;2023-10-08T12:10:14;4.17;;;1.50;;
1591;SDS011;789;51.612;7.510;2023-10-08T12:12:42;2.73;;;1.20;;
1591;SDS011;789;51.612;7.510;2023-10-08T12:15:10;3.40;;;1.37;;
1591;SDS011;789;51.612;7.510;2023-10-08T12:17:44;2.37;;;1.20;;
1591;SDS011;789;51.612;7.510;2023-10-08T12:20:34;2.37;;;0.90;;
1591;SDS011;789;51.612;7.510;2023-10-08T12:23:02;3.50;;;1.33;;
1591;SDS011;789;51.612;7.510;2023-10-08T12:25:32;5.57;;;1.80;;
1591;SDS011;789;51.612;7.510;2023-10-08T12:27:59;2.80;;;1.33;;
1591;SDS011;789;51.612;7.510;2023-10-08T12:30:29;3.73;;;1.43;;
1591;SDS011;789;51.612;7.510;2023-10-08T12:33:06;4.63;;;1.30;;
1591;SDS011;789;51.612;7.510;2023-10-08T12:35:37;4.93;;;1.53;;
1591;SDS011;789;51.612;7.510;2023-10-08T12:38:05;3.23;;;1.17;;
1591;SDS011;789;51.612;7.510;2023-10-08T12:40:35;5.30;;;1.30;;
1591;SDS011;789;51.612;7.510;2023-10-08T12:43:12;4.13;;;1.40;;
1591;SDS011;789;51.612;7.510;2023-10-08T12:45:44;3.70;;;1.00;;
1591;SDS011;789;51.612;7.510;2023-10-08T12:48:17;5.17;;;1.53;;
1591;SDS011;789;51.612;7.510;2023-10-08T12:50:45;2.27;;;1.13;;
1591;SDS011;789;51.612;7.510;2023-10-08T12:53:18;4.17;;;1.33;;
1591;SDS011;789;51.612;7.510;2023-10-08T12:55:50;3.03;;;1.20;;
1591;SDS011;789;51.612;7.510;2023-10-08T12:58:20;2.60;;;1.03;;
1591;SDS011;789;51.612;7.510;2023-10-08T13:00:50;4.07;;;1.13;;
1591;SDS011;789;51.612;7.510;2023-10-08T13:03:22;5.13;;;1.40;;
1591;SDS011;789;51.612;7.510;2023-10-08T13:05:51;1.77;;;0.93;;
1591;SDS011;789;51.612;7.510;2023-10-08T13:08:18;2.53;;;1.20;;
1591;SDS011;789;51.612;7.510;2023-10-08T13:10:47;4.20;;;1.27;;
1591;SDS011;789;51.612;7.510;2023-10-08T13:13:15;2.47;;;1.07;;
1591;SDS011;789;51.612;7.510;2023-10-08T13:15:43;3.70;;;1.20;;
1591;SDS011;789;51.612;7.510;2023-10-08T13:18:10;3.70;;;1.30;;
1591;SDS011;789;51.612;7.510;2023-10-08T13:20:37;2.40;;;1.33;;
1591;SDS011;789;51.612;7.510;2023-10-08T13:23:06;1.90;;;1.20;;
1591;SDS011;789;51.612;7.510;2023-10-08T13:25:34;2.43;;;1.50;;
1591;SDS011;789;51.612;7.510;2023-10-08T13:28:04;3.50;;;1.50;;
1591;SDS011;789;51.612;7.510;2023-10-08T13:30:36;3.60;;;1.30;;
1591;SDS011;789;51.612;7.510;2023-10-08T13:33:03;1.87;;;1.20;;
1591;SDS011;789;51.612;7.510;2023-10-08T13:35:33;5.20;;;1.80;;
1591;SDS011;789;51.612;7.510;2023-10-08T13:38:00;3.90;;;1.70;;
1591;SDS011;789;51.612;7.510;2023-10-08T13:40:34;3.10;;;1.50;;
1591;SDS011;789;51.612;7.510;2023-10-08T13:43:08;5.17;;;1.50;;
1591;SDS011;789;51.612;7.510;2023-10-08T13:45:38;3.97;;;1.63;;
1591;SDS011;789;51.612;7.510;2023-10-08T13:48:05;2.50;;;1.70;;
1591;SDS011;789;51.612;7.510;2023-10-08T13:50:38;3.37;;;2.30;;
1591;SDS011;789;51.612;7.510;2023-10-08T13:53:07;5.43;;;1.73;;
1591;SDS011;789;51.612;7.510;2023-10-08T13:55:35;6.50;;;1.60;;
1591;SDS011;789;51.612;7.510;2023-10-08T13:58:02;2.80;;;1.90;;
1591;SDS011;789;51.612;7.510;2023-10-08T14:00:29;4.53;;;1.77;;
1591;SDS011;789;51.612;7.510;2023-10-08T14:03:02;4.33;;;1.70;;
1591;SDS011;789;51.612;7.510;2023-10-08T14:05:33;4.17;;;2.33;;
1591;SDS011;789;51.612;7.510;2023-10-08T14:08:03;3.33;;;1.80;;
1591;SDS011;789;51.612;7.510;2023-10-08T14:10:35;2.83;;;1.60;;
1591;SDS011;789;51.612;7.510;2023-10-08T14:13:02;4.10;;;1.93;;
1591;SDS011;789;51.612;7.510;2023-10-08T14:15:31;4.33;;;1.77;;
1591;SDS011;789;51.612;7.510;2023-10-08T14:17:59;3.63;;;1.80;;
1591;SDS011;789;51.612;7.510;2023-10-08T14:20:31;2.00;;;1.60;;
1591;SDS011;789;51.612;7.510;2023-10-08T14:22:58;2.73;;;1.53;;
1591;SDS011;789;51.612;7.510;2023-10-08T14:25:29;2.60;;;2.20;;
1591;SDS011;789;51.612;7.510;2023-10-08T14:27:58;4.80;;;2.20;;
1591;SDS011;789;51.612;7.510;2023-10-08T14:30:29;3.87;;;1.70;;
1591;SDS011;789;51.612;7.510;2023-10-08T14:32:58;2.60;;;1.80;;
1591;SDS011;789;51.612;7.510;2023-10-08T14:35:26;2.90;;;1.60;;
1591;SDS011;789;51.612;7.510;2023-10-08T14:38:11;4.37;;;2.07;;
1591;SDS011;789;51.612;7.510;2023-10-08T14:40:55;3.90;;;1.67;;
1591;SDS011;789;51.612;7.510;2023-10-08T14:43:39;3.43;;;2.33;;
1591;SDS011;789;51.612;7.510;2023-10-08T14:46:08;5.27;;;1.77;;
1591;SDS011;789;51.612;7.510;2023-10-08T14:48:36;3.50;;;1.70;;
1591;SDS011;789;51.612;7.510;2023-10-08T14:51:05;2.73;;;1.57;;
1591;SDS011;789;51.612;7.510;2023-10-08T14:53:36;4.27;;;1.43;;
1591;SDS011;789;51.612;7.510;2023-10-08T14:56:05;3.10;;;1.70;;
1591;SDS011;789;51.612;7.510;2023-10-08T14:58:32;3.53;;;1.73;;
1591;SDS011;789;51.612;7.510;2023-10-08T15:00:59;4.40;;;2.00;;
1591;SDS011;789;51.612;7.510;2023-10-08T15:03:26;3.13;;;1.90;;
1591;SDS011;789;51.612;7.510;2023-10-08T15:05:54;4.07;;;2.10;;
1591;SDS011;789;51.612;7.510;2023-10-08T15:08:22;3.03;;;2.07;;
1591;SDS011;789;51.612;7.510;2023-10-08T15:10:50;3.30;;;1.70;;
1591;SDS011;789;51.612;7.510;2023-10-08T15:13:19;4.27;;;2.40;;
1591;SDS011;789;51.612;7.510;2023-10-08T15:15:45;7.07;;;2.23;;
1591;SDS011;789;51.612;7.510;2023-10-08T15:18:12;4.07;;;2.27;;
1591;SDS011;789;51.612;7.510;2023-10-08T15:20:39;2.93;;;2.23;;
1591;SDS011;789;51.612;7.510;2023-10-08T15:23:08;4.00;;;2.20;;
1591;SDS011;789;51.612;7.510;2023-10-08T15:25:37;3.37;;;1.70;;
1591;SDS011;789;51.612;7.510;2023-10-08T15:28:05;4.13;;;2.00;;
1591;SDS011;789;51.612;7.510;2023-10-08T15:30:32;4.43;;;1.90;;
1591;SDS011;789;51.612;7.510;2023-10-08T15:33:00;3.53;;;1.83;;
1591;SDS011;789;51.612;7.510;2023-10-08T15:35:28;3.30;;;2.27;;
1591;SDS011;789;51.612;7.510;2023-10-08T15:37:55;2.80;;;1.87;;
1591;SDS011;789;51.612;7.510;2023-10-08T15:40:21;4.77;;;1.90;;
1591;SDS011;789;51.612;7.510;2023-10-08T15:42:49;3.00;;;2.00;;
1591;SDS011;789;51.612;7.510;2023-10-08T15:45:18;6.00;;;2.40;;
1591;SDS011;789;51.612;7.510;2023-10-08T15:47:45;4.63;;;1.60;;
1591;SDS011;789;51.612;7.510;2023-10-08T15:50:14;4.33;;;2.20;;
1591;SDS011;789;51.612;7.510;2023-10-08T15:52:40;2.17;;;1.83;;
1591;SDS011;789;51.612;7.510;2023-10-08T15:55:08;5.33;;;1.97;;
1591;SDS011;789;51.612;7.510;2023-10-08T15:57:36;4.17;;;1.80;;
1591;SDS011;789;51.612;7.510;2023-10-08T16:00:05;3.77;;;2.10;;
1591;SDS011;789;51.612;7.510;2023-10-08T16:02:35;3.27;;;2.17;;